Historique des mesures à Cassis (13260), France
Quotidien Résumé Juillet 23, 2017 Unités:  Métrique    US   Métrique/US
« Précédent (Jour)
Suivant (Jour) »
Quotidien Hebdomadaire Mensuel Annuel Période au choix
  Maximum: Minimum: Moyenne:
Température: TemperatureC °C 23.0 °C 25.5 °C
Point de rosée: DewpointC °C 16.1 °C 17.7 °C
Humidité: Humidity % 42 % 60 %
Vitesse du vent: 0 km/h 0 km/h 11.9 km/h
Rafales: 0 km/h - -
Vent:- - South
Pression: PressurehPa hPa 1007.3 hPa -
Précipitations: 0.0 mm    
Historical Graphs
 
 
Mesures pour : Juillet 23, 2017
Heure Temperature Point de rosée Pression Vent Vitesse du vent Rafales Humidité Pluie (par heure) Conditions
TemperatureC °C DewpointC °C PressurehPa hPa Calm     Humidity % HourlyPrecipMM mm SoftwareType W/m2
00:11 23.8 °C 19.8 °C 1013.1 hPa Calm     78 % 0.0 mm open2300-1.11 W/m2
01:11 23.4 °C 19.4 °C 1013.1 hPa Calm     78 % 0.0 mm open2300-1.11 W/m2
02:11 23.2 °C 19.4 °C 1013.1 hPa Calm     79 % 0.0 mm open2300-1.11 W/m2
03:11 23.0 °C 19.4 °C 1012.4 hPa Calm     80 % 0.0 mm open2300-1.11 W/m2
04:11 23.2 °C 19.6 °C 1012.4 hPa Calm     80 % 0.0 mm open2300-1.11 W/m2
05:11 23.4 °C 19.8 °C 1012.1 hPa North 2.9 km/h 7.6 km/h 80 % 0.0 mm open2300-1.11 W/m2
06:11 23.3 °C 19.7 °C 1012.1 hPa Calm     80 % 0.0 mm open2300-1.11 W/m2
07:11 23.3 °C 19.7 °C 1012.4 hPa Calm   2.9 km/h 80 % 0.0 mm open2300-1.11 W/m2
08:11 25.5 °C 20.7 °C 1012.8 hPa Calm     75 % 0.0 mm open2300-1.11 W/m2
09:11 25.1 °C 18.3 °C 1012.1 hPa North 12.2 km/h 15 km/h 66 % 0.0 mm open2300-1.11 W/m2
10:11 26.4 °C 18.6 °C 1012.1 hPa North 14.5 km/h 14.5 km/h 62 % 0.0 mm open2300-1.11 W/m2
11:11 29.8 °C 19.2 °C 1012.1 hPa NNE 7.6 km/h 29.5 km/h 53 % 0.0 mm open2300-1.11 W/m2
12:11 30.5 °C 18.9 °C 1012.1 hPa WNW 15.6 km/h 15.6 km/h 50 % 0.0 mm open2300-1.11 W/m2
13:11 30.6 °C 18.0 °C 1011.7 hPa NW 26.2 km/h 40.7 km/h 47 % 0.0 mm open2300-1.11 W/m2
14:11 32.1 °C 17.5 °C 1011.4 hPa NW 36.5 km/h 36.5 km/h 42 % 0.0 mm open2300-1.11 W/m2
15:11 30.6 °C 17.7 °C 1011.4 hPa WNW 54.4 km/h 54.4 km/h 46 % 0.0 mm open2300-1.11 W/m2
16:11 29.4 °C 17.6 °C 1010.7 hPa West 20.3 km/h 64.7 km/h 49 % 0.0 mm open2300-1.11 W/m2
17:11 29.3 °C 17.5 °C 1011.1 hPa WNW 15.6 km/h 19.6 km/h 49 % 0.0 mm open2300-1.11 W/m2
18:11 28.3 °C 16.6 °C 1010.4 hPa North 22 km/h 22 km/h 49 % 0.0 mm open2300-1.11 W/m2
19:11 27.9 °C 16.5 °C 1010.4 hPa ENE 6.4 km/h 10.3 km/h 50 % 0.0 mm open2300-1.11 W/m2
20:11 27.1 °C 16.1 °C 1007.3 hPa ENE 8 km/h 8 km/h 51 % 0.0 mm open2300-1.11 W/m2
21:11 26.9 °C 16.2 °C 1009.7 hPa WNW 17.4 km/h 17.4 km/h 52 % 0.0 mm open2300-1.11 W/m2
22:11 25.7 °C 18.1 °C 1009.7 hPa WNW 6.9 km/h 8 km/h 63 % 0.0 mm open2300-1.11 W/m2
23:11 25.3 °C 18.0 °C 1011.1 hPa NW 31.9 km/h 43.5 km/h 64 % 0.0 mm open2300-1.11 W/m2
Observations météo à CASSIS
WU-History script by Weather Underground - 1 mb